Terminal Aerodrome Forecast
Issued by NWS

Home | Current Version | Previous Version | Text Only | Print | Product List | Glossary On
Versions: 1 2 3 4 5 6 7 8 9 10 11 12 13 14 15 16
000
FTUS44 KTSA 040500
TAFRVS
TAF
KRVS 040537Z 0406/0506 36007KT P6SM OVC015
     FM041200 36015KT 4SM PL OVC015
     FM041800 01015KT 3SM -SN OVC025
      TEMPO 0418/0421 1SM -SN OVC015
     FM042200 01013KT P6SM OVC080=

USA.gov is the U.S. government's official web portal to all federal, state and local government web resources and services.